KJST/JST METAR and TAF weather

Enter ICAO airport designator
Station Type Date Time Source
KJST METAR 2022/01/26 14:54 UTC NOAA

KJST 261454Z AUTO 27010KT 2SM -SN SCT012 SCT018 OVC029 M11/M14 A3023 RMK AO2 SLP280 P0000 60000 T11111144 51014


Station Type Date Time Source
KJST Decoded METAR 2022/01/26 14:54 UTC NOAA

JOHNSTOWN-CAMBRIA CO AIRPORT , PA, United States (KJST) 40-19N 078-50W 694M
Jan 26, 2022 - 09:54 AM EST / 2022.01.26 1454 UTC
Wind: from the W (270 degrees) at 12 MPH (10 KT):0
Visibility: 2 mile(s):0
Sky conditions: overcast
Weather: light snow
Precipitation last hour: A trace
Temperature: 12.0 F (-11.1 C)
Windchill: -2 F (-19 C):1
Dew Point: 6.1 F (-14.4 C)
Relative Humidity: 76%
Pressure (altimeter): 30.23 in. Hg (1023 hPa)
Pressure tendency: 0.04 inches (1.4 hPa) higher than three hours ago
ob: KJST 261454Z AUTO 27010KT 2SM -SN SCT012 SCT018 OVC029 M11/M14 A3023 RMK AO2 SLP280 P0000 60000 T11111144 51014
cycle: 15

Station Type Date Time Source
KJST TAF 2022/01/26 14:27 UTC NOAA

TAF
AMD KJST 261425Z 2614/2712 26007KT 1 1/2SM -SN OVC030
FM261600 29008KT P6SM BKN035
FM270100 27007KT P6SM FEW030

Example: see airport list